createdAt,value
2019-06-27T00:03:43.589Z,5.93
2019-06-27T00:09:04.374Z,7.97
2019-06-27T00:14:23.461Z,6.50
2019-06-27T00:19:42.588Z,6.83
2019-06-27T00:25:01.808Z,6.00
2019-06-27T00:30:21.070Z,6.50
2019-06-27T00:35:40.234Z,7.20
2019-06-27T00:40:59.397Z,7.20
2019-06-27T00:46:18.549Z,6.00
2019-06-27T00:51:37.734Z,5.60
2019-06-27T00:57:12.569Z,4.53
2019-06-27T01:02:17.787Z,4.30
2019-06-27T01:07:36.912Z,4.27
2019-06-27T01:12:56.066Z,4.33
2019-06-27T01:18:15.598Z,4.03
2019-06-27T01:23:34.813Z,4.20
2019-06-27T01:28:53.973Z,4.20
2019-06-27T01:34:13.144Z,4.23
2019-06-27T01:39:32.315Z,5.20
2019-06-27T01:44:53.130Z,4.93
2019-06-27T01:50:12.348Z,5.55
2019-06-27T01:55:31.534Z,5.63
2019-06-27T02:00:50.767Z,5.57
2019-06-27T02:06:10.009Z,6.07
2019-06-27T02:11:29.162Z,6.17
2019-06-27T02:16:48.345Z,5.90
2019-06-27T02:22:07.508Z,5.60
2019-06-27T02:27:26.604Z,5.60
2019-06-27T02:32:45.799Z,6.87
2019-06-27T02:38:05.096Z,6.93
2019-06-27T02:43:24.313Z,8.60
2019-06-27T02:48:43.497Z,9.13
2019-06-27T02:54:02.662Z,8.83
2019-06-27T02:59:21.858Z,7.87
2019-06-27T03:04:40.998Z,8.03
2019-06-27T03:10:00.173Z,6.50
2019-06-27T03:15:19.403Z,6.30
2019-06-27T03:20:38.934Z,6.40
2019-06-27T03:25:58.125Z,7.13
2019-06-27T03:31:17.384Z,6.80
2019-06-27T03:36:36.845Z,8.77
2019-06-27T03:41:56.021Z,8.70
2019-06-27T03:47:15.158Z,10.80
2019-06-27T03:52:34.705Z,10.20
2019-06-27T03:57:53.793Z,9.10
2019-06-27T04:03:12.953Z,9.10
2019-06-27T04:08:32.132Z,9.80
2019-06-27T04:13:51.332Z,9.80
2019-06-27T04:19:10.564Z,9.60
2019-06-27T04:24:29.797Z,11.97
2019-06-27T04:29:48.961Z,10.30
2019-06-27T04:35:08.181Z,10.57
2019-06-27T04:40:27.349Z,9.83
2019-06-27T04:45:46.499Z,10.17
2019-06-27T04:51:05.655Z,8.07
2019-06-27T04:56:24.984Z,7.73
2019-06-27T05:01:44.132Z,7.43
2019-06-27T05:07:03.234Z,6.87
2019-06-27T05:12:22.379Z,6.60
2019-06-27T05:17:41.463Z,7.30
2019-06-27T05:23:00.625Z,6.73
2019-06-27T05:28:19.800Z,5.93
2019-06-27T05:33:38.946Z,5.03
2019-06-27T05:38:58.102Z,4.23
2019-06-27T05:44:17.232Z,4.43
2019-06-27T05:49:36.390Z,5.23
2019-06-27T05:54:55.539Z,4.27
2019-06-27T06:00:27.760Z,6.73
2019-06-27T06:05:36.155Z,9.70
2019-06-27T06:10:55.368Z,9.67
2019-06-27T06:16:14.438Z,5.10
2019-06-27T06:21:33.605Z,9.40
2019-06-27T06:26:52.756Z,4.50
2019-06-27T06:32:11.871Z,3.73
2019-06-27T06:37:31.032Z,5.80
2019-06-27T06:42:50.227Z,5.57
2019-06-27T06:48:09.451Z,9.73
2019-06-27T06:53:28.561Z,9.40
2019-06-27T06:58:47.926Z,4.70
2019-06-27T07:04:07.076Z,4.83
2019-06-27T07:09:26.395Z,4.60
2019-06-27T07:14:45.615Z,4.17
2019-06-27T07:20:05.969Z,3.40
2019-06-27T07:25:25.125Z,3.33
2019-06-27T07:30:44.368Z,3.87
2019-06-27T07:36:03.491Z,3.73
2019-06-27T07:41:22.686Z,4.17
2019-06-27T07:46:41.881Z,3.90
2019-06-27T07:52:01.043Z,3.87
2019-06-27T07:57:20.176Z,3.33
2019-06-27T08:02:39.319Z,4.20
2019-06-27T08:07:58.523Z,3.87
2019-06-27T08:13:17.659Z,4.33
2019-06-27T08:18:36.810Z,4.20
2019-06-27T08:23:55.967Z,4.77
2019-06-27T08:29:15.120Z,3.93
2019-06-27T08:34:34.504Z,5.50
2019-06-27T08:39:53.626Z,5.33
2019-06-27T08:45:13.797Z,5.72
2019-06-27T08:50:32.913Z,5.83
2019-06-27T08:55:52.092Z,5.67
2019-06-27T09:01:11.292Z,6.20
2019-06-27T09:06:30.830Z,5.43
2019-06-27T09:11:50.001Z,4.70
2019-06-27T09:17:09.175Z,4.80
2019-06-27T09:22:28.367Z,5.30
2019-06-27T09:27:47.832Z,3.80
2019-06-27T09:33:07.003Z,4.00
2019-06-27T09:38:26.170Z,5.23
2019-06-27T09:43:45.382Z,4.40
2019-06-27T09:49:04.947Z,4.37
2019-06-27T09:54:24.097Z,4.50
2019-06-27T09:59:43.246Z,3.97
2019-06-27T10:05:02.448Z,4.70
2019-06-27T10:10:21.589Z,4.30
2019-06-27T10:15:40.751Z,4.17
2019-06-27T10:20:59.938Z,4.30
2019-06-27T10:26:19.064Z,3.90
2019-06-27T10:31:38.177Z,4.70
2019-06-27T10:36:57.353Z,4.10
2019-06-27T10:42:17.166Z,4.07
2019-06-27T10:47:36.326Z,3.63
2019-06-27T10:52:55.473Z,3.80
2019-06-27T10:58:14.552Z,3.77
2019-06-27T11:03:33.925Z,4.13
2019-06-27T11:08:53.088Z,2.63
2019-06-27T11:14:12.602Z,3.30
2019-06-27T11:19:31.795Z,3.20
2019-06-27T11:24:50.989Z,3.43
2019-06-27T11:30:10.284Z,2.40
2019-06-27T11:35:29.595Z,2.97
2019-06-27T11:40:48.755Z,3.20
2019-06-27T11:46:08.983Z,3.77
2019-06-27T11:51:28.547Z,3.03
2019-06-27T11:56:47.731Z,3.83
2019-06-27T12:02:07.072Z,3.90
2019-06-27T12:07:26.221Z,4.53
2019-06-27T12:12:45.372Z,5.20
2019-06-27T12:18:04.820Z,6.37
2019-06-27T12:23:24.555Z,4.67
2019-06-27T12:28:43.724Z,4.13
2019-06-27T12:34:07.333Z,5.08
2019-06-27T12:39:23.796Z,4.67
2019-06-27T12:44:42.941Z,3.70
2019-06-27T12:50:03.231Z,4.97
2019-06-27T12:55:22.717Z,3.93
2019-06-27T13:00:41.877Z,3.80
2019-06-27T13:06:01.377Z,3.22
2019-06-27T13:11:20.543Z,3.83
2019-06-27T13:16:39.830Z,3.55
2019-06-27T13:21:59.029Z,3.05
2019-06-27T13:27:18.571Z,3.53
2019-06-27T13:32:37.788Z,3.98
2019-06-27T13:37:57.940Z,3.62
2019-06-27T13:43:17.157Z,3.60
2019-06-27T13:48:36.314Z,3.47
2019-06-27T13:53:55.437Z,3.22
2019-06-27T13:59:14.903Z,3.67
2019-06-27T14:04:34.360Z,3.17
2019-06-27T14:09:57.110Z,4.25
2019-06-27T14:15:14.644Z,3.57
2019-06-27T14:20:33.816Z,4.00
2019-06-27T14:25:52.983Z,4.08
2019-06-27T14:31:12.138Z,3.30
2019-06-27T14:36:31.722Z,3.10
2019-06-27T14:41:50.836Z,2.87
2019-06-27T14:47:09.987Z,2.75
2019-06-27T14:52:29.149Z,2.70
2019-06-27T14:57:48.305Z,2.90
2019-06-27T15:03:07.447Z,2.90
2019-06-27T15:08:26.569Z,2.90
2019-06-27T15:13:45.730Z,2.27
2019-06-27T15:19:04.877Z,2.90
2019-06-27T15:24:24.034Z,2.52
2019-06-27T15:29:43.187Z,2.33
2019-06-27T15:35:02.406Z,2.77
2019-06-27T15:40:21.746Z,3.10
2019-06-27T15:45:40.847Z,2.30
2019-06-27T15:50:59.997Z,2.10
2019-06-27T15:56:19.234Z,2.40
2019-06-27T16:01:38.528Z,2.50
2019-06-27T16:06:57.666Z,2.30
2019-06-27T16:12:16.838Z,2.27
2019-06-27T16:17:36.005Z,3.00
2019-06-27T16:22:55.127Z,2.30
2019-06-27T16:28:14.391Z,3.37
2019-06-27T16:33:33.543Z,2.27
2019-06-27T16:38:52.674Z,2.00
2019-06-27T16:44:11.795Z,1.80
2019-06-27T16:49:31.272Z,2.20
2019-06-27T16:54:50.788Z,2.37
2019-06-27T17:00:10.144Z,2.40
2019-06-27T17:05:29.342Z,2.77
2019-06-27T17:10:48.505Z,2.50
2019-06-27T17:16:07.653Z,2.20
2019-06-27T17:21:26.807Z,2.87
2019-06-27T17:26:45.961Z,2.47
2019-06-27T17:32:06.520Z,2.13
2019-06-27T17:37:25.819Z,2.20
2019-06-27T17:42:44.997Z,1.97
2019-06-27T17:48:04.119Z,2.10
2019-06-27T17:53:23.261Z,2.60
2019-06-27T17:58:42.392Z,2.20
2019-06-27T18:04:01.597Z,2.50
2019-06-27T18:09:20.730Z,2.40
2019-06-27T18:14:39.958Z,2.67
2019-06-27T18:19:59.124Z,2.00
2019-06-27T18:25:18.310Z,2.80
2019-06-27T18:30:37.429Z,2.40
2019-06-27T18:35:56.562Z,3.70
2019-06-27T18:41:15.856Z,2.33
2019-06-27T18:46:35.068Z,2.50
2019-06-27T18:51:54.139Z,2.63
2019-06-27T18:57:13.350Z,2.27
2019-06-27T19:02:32.533Z,3.20
2019-06-27T19:07:51.778Z,2.60
2019-06-27T19:13:10.854Z,2.40
2019-06-27T19:18:43.207Z,2.30
2019-06-27T19:24:15.999Z,2.43
2019-06-27T19:29:35.149Z,2.30
2019-06-27T19:34:54.295Z,2.50
2019-06-27T19:40:13.945Z,2.80
2019-06-27T19:45:33.076Z,2.60
2019-06-27T19:50:52.231Z,3.00
2019-06-27T19:56:11.390Z,3.17
2019-06-27T20:01:30.545Z,3.13
2019-06-27T20:06:49.675Z,2.93
2019-06-27T20:12:08.821Z,3.20
2019-06-27T20:17:28.087Z,2.80
2019-06-27T20:22:48.926Z,2.83
2019-06-27T20:28:08.042Z,2.90
2019-06-27T20:33:34.005Z,2.40
2019-06-27T20:38:53.151Z,2.07
2019-06-27T20:44:12.625Z,3.47
2019-06-27T20:49:31.764Z,2.17
2019-06-27T20:54:50.974Z,2.60
2019-06-27T21:00:10.466Z,2.20
2019-06-27T21:05:29.560Z,2.20
2019-06-27T21:10:48.695Z,2.30
2019-06-27T21:16:07.828Z,2.93
2019-06-27T21:21:26.976Z,2.80
2019-06-27T21:26:46.109Z,3.10
2019-06-27T21:32:05.272Z,4.60
2019-06-27T21:37:24.408Z,3.33
2019-06-27T21:42:43.560Z,3.40
2019-06-27T21:48:02.748Z,3.37
2019-06-27T21:53:21.883Z,3.70
2019-06-27T21:58:41.042Z,3.90
2019-06-27T22:04:00.186Z,3.83
2019-06-27T22:09:24.859Z,3.47
2019-06-27T22:14:40.215Z,4.60
2019-06-27T22:20:14.064Z,4.43
2019-06-27T22:25:20.218Z,4.90
2019-06-27T22:30:39.366Z,4.80
2019-06-27T22:35:58.502Z,4.97
2019-06-27T22:41:35.589Z,5.17
2019-06-27T22:47:12.866Z,5.50
2019-06-27T22:52:36.765Z,5.27
2019-06-27T22:57:55.907Z,5.30
2019-06-27T23:03:15.054Z,5.87
2019-06-27T23:08:34.188Z,5.70
2019-06-27T23:13:53.334Z,6.47
2019-06-27T23:19:12.474Z,5.63
2019-06-27T23:24:31.936Z,5.57
2019-06-27T23:29:51.017Z,5.27
2019-06-27T23:35:10.262Z,6.20
2019-06-27T23:40:29.335Z,6.27
2019-06-27T23:45:48.552Z,5.80
2019-06-27T23:51:07.639Z,5.80
2019-06-27T23:56:26.722Z,6.67
